Time;durP1;ratioP1;P1;durP2;ratioP2;P2;SDS_P1;SDS_P2;PMS_P1;PMS_P2;Temp;Humidity;BMP_temperature;BMP_pressure;BME280_temperature;BME280_humidity;BME280_pressure;Samples;Min_cycle;Max_cycle;Signal;HPM_P1;HPM_P2
2024/01/12 00:00:31;;;;;;;0.10;0.10;;;4.40;86.30;;;;;;4948533;28;20054;-69
2024/01/12 00:02:57;;;;;;;0.00;0.00;;;4.40;86.20;;;;;;4949122;28;20094;-69
2024/01/12 00:05:23;;;;;;;0.00;0.00;;;4.40;86.10;;;;;;4948636;28;20472;-69
2024/01/12 00:07:48;;;;;;;0.10;0.10;;;4.50;86.20;;;;;;4948346;28;20047;-69
2024/01/12 00:10:14;;;;;;;0.10;0.10;;;4.40;86.10;;;;;;4947696;28;20051;-69
2024/01/12 00:12:40;;;;;;;0.00;0.00;;;4.50;86.10;;;;;;4948763;28;20044;-69
2024/01/12 00:15:06;;;;;;;0.10;0.10;;;4.50;86.00;;;;;;4959806;28;20408;-69
2024/01/12 00:17:32;;;;;;;0.00;0.00;;;4.50;86.00;;;;;;4963022;28;20054;-69
2024/01/12 00:19:58;;;;;;;0.00;0.00;;;4.40;85.90;;;;;;4962238;28;20077;-69
2024/01/12 00:22:24;;;;;;;0.00;0.00;;;4.40;85.90;;;;;;4956154;28;20763;-69
2024/01/12 00:24:50;;;;;;;0.00;0.00;;;4.40;86.00;;;;;;4952209;28;20122;-69
2024/01/12 00:27:15;;;;;;;0.10;0.10;;;4.40;85.90;;;;;;4951703;28;20125;-69
2024/01/12 00:29:41;;;;;;;0.00;0.00;;;4.40;86.00;;;;;;4951967;28;20047;-69
2024/01/12 00:32:07;;;;;;;0.03;0.03;;;4.40;86.00;;;;;;4951295;28;20047;-69
2024/01/12 00:34:33;;;;;;;0.00;0.00;;;4.40;86.00;;;;;;4951056;28;20410;-69
2024/01/12 00:36:59;;;;;;;0.00;0.00;;;4.40;86.10;;;;;;4951172;28;20051;-69
2024/01/12 00:39:25;;;;;;;2.42;1.58;;;4.40;86.10;;;;;;4950992;28;20047;-69
2024/01/12 00:41:52;;;;;;;0.00;0.00;;;4.40;86.20;;;;;;4951675;28;20055;-69
2024/01/12 00:44:18;;;;;;;0.00;0.00;;;4.40;86.10;;;;;;4954572;28;20451;-69
2024/01/12 00:46:50;;;;;;;0.00;0.00;;;4.40;86.10;;;;;;4951744;28;20861;-69
2024/01/12 00:49:17;;;;;;;0.00;0.00;;;4.40;86.00;;;;;;4956313;28;20082;-69
2024/01/12 00:51:43;;;;;;;0.00;0.00;;;4.40;86.10;;;;;;4957045;28;20058;-68
2024/01/12 00:54:08;;;;;;;0.10;0.10;;;4.30;86.10;;;;;;4955369;28;20605;-67
2024/01/12 00:56:34;;;;;;;0.10;0.10;;;4.30;86.10;;;;;;4964352;28;20515;-67
2024/01/12 00:59:00;;;;;;;0.00;0.00;;;4.30;86.10;;;;;;4964100;28;20186;-67
2024/01/12 01:01:25;;;;;;;0.00;0.00;;;4.40;86.20;;;;;;4966136;28;20057;-68
2024/01/12 01:03:52;;;;;;;0.00;0.00;;;4.30;86.10;;;;;;4969070;28;20603;-67
2024/01/12 01:06:18;;;;;;;0.10;0.10;;;4.30;86.10;;;;;;4950760;28;20497;-68
2024/01/12 01:08:45;;;;;;;0.00;0.00;;;4.20;86.10;;;;;;4951225;28;20046;-67
2024/01/12 01:11:11;;;;;;;0.10;0.10;;;4.20;86.10;;;;;;4966194;28;20575;-68
2024/01/12 01:13:38;;;;;;;0.03;0.03;;;4.20;86.10;;;;;;4951619;28;20090;-68
2024/01/12 01:16:04;;;;;;;0.10;0.10;;;4.20;86.10;;;;;;4932478;29;20079;-68
2024/01/12 01:18:30;;;;;;;0.15;0.15;;;4.10;86.20;;;;;;4936561;29;20078;-68
2024/01/12 01:20:57;;;;;;;0.00;0.00;;;4.10;86.30;;;;;;4978226;28;20044;-68
2024/01/12 01:23:23;;;;;;;0.00;0.00;;;4.10;86.50;;;;;;4958475;28;20043;-68
2024/01/12 01:25:49;;;;;;;0.10;0.10;;;4.10;86.50;;;;;;4968322;28;20460;-68
2024/01/12 01:28:15;;;;;;;0.00;0.00;;;4.20;86.50;;;;;;4967168;28;20719;-68
2024/01/12 01:30:40;;;;;;;0.00;0.00;;;4.20;86.60;;;;;;4951416;28;20058;-68
2024/01/12 01:33:06;;;;;;;0.10;0.10;;;4.20;86.50;;;;;;4950747;28;20062;-68
2024/01/12 01:35:32;;;;;;;0.00;0.00;;;4.10;86.50;;;;;;4951064;28;20051;-69
2024/01/12 01:37:58;;;;;;;0.10;0.10;;;4.10;86.70;;;;;;4953021;28;20040;-68
2024/01/12 01:40:27;;;;;;;0.08;0.08;;;4.00;86.80;;;;;;4947897;28;20051;-68
2024/01/12 01:42:56;;;;;;;0.00;0.00;;;4.10;86.80;;;;;;4949272;28;20059;-68
2024/01/12 01:45:21;;;;;;;0.10;0.10;;;4.10;86.90;;;;;;4951798;28;20051;-68
2024/01/12 01:47:47;;;;;;;0.00;0.00;;;4.10;87.00;;;;;;4955461;28;20035;-68
2024/01/12 01:50:15;;;;;;;0.00;0.00;;;4.10;86.90;;;;;;4964438;28;20047;-68
2024/01/12 01:52:42;;;;;;;0.00;0.00;;;4.10;86.90;;;;;;4966621;28;20045;-68
2024/01/12 01:55:09;;;;;;;0.10;0.10;;;4.00;86.90;;;;;;4966273;28;20039;-69
2024/01/12 01:57:36;;;;;;;0.10;0.10;;;4.00;86.90;;;;;;4950701;28;20145;-69
2024/01/12 02:00:02;;;;;;;0.00;0.00;;;4.10;86.90;;;;;;4948707;28;20051;-69
2024/01/12 02:02:29;;;;;;;0.00;0.00;;;4.00;86.80;;;;;;4950612;28;20063;-69
2024/01/12 02:04:58;;;;;;;0.10;0.10;;;4.00;86.80;;;;;;4950694;28;20047;-67
2024/01/12 02:07:23;;;;;;;0.10;0.10;;;3.90;87.10;;;;;;4950340;28;20548;-67
2024/01/12 02:09:49;;;;;;;0.10;0.10;;;3.90;87.00;;;;;;4949517;28;20083;-67
2024/01/12 02:12:15;;;;;;;0.10;0.10;;;3.90;87.10;;;;;;4950770;28;20039;-67
2024/01/12 02:14:41;;;;;;;0.00;0.00;;;3.90;87.00;;;;;;4950449;28;20053;-67
2024/01/12 02:17:07;;;;;;;0.10;0.10;;;3.90;87.10;;;;;;4951345;28;20044;-67
2024/01/12 02:19:33;;;;;;;0.20;0.20;;;4.00;87.10;;;;;;4956608;28;20043;-67
2024/01/12 02:21:58;;;;;;;0.10;0.10;;;3.90;87.10;;;;;;4956677;28;20039;-67
2024/01/12 02:24:24;;;;;;;0.10;0.10;;;3.90;87.20;;;;;;4962116;28;20042;-67
2024/01/12 02:26:49;;;;;;;0.00;0.00;;;3.90;87.20;;;;;;4951469;28;20051;-67
2024/01/12 02:29:15;;;;;;;0.00;0.00;;;4.00;87.30;;;;;;4949933;28;20571;-68
2024/01/12 02:31:42;;;;;;;0.00;0.00;;;4.00;87.40;;;;;;4948182;28;20586;-67
2024/01/12 02:34:08;;;;;;;0.00;0.00;;;4.00;87.30;;;;;;4950952;28;20043;-67
2024/01/12 02:36:34;;;;;;;0.00;0.00;;;4.00;87.30;;;;;;4950612;29;20054;-67
2024/01/12 02:39:00;;;;;;;0.00;0.00;;;4.00;87.30;;;;;;4947803;28;20050;-67
2024/01/12 02:41:25;;;;;;;0.00;0.00;;;4.10;87.40;;;;;;4948573;28;20039;-68
2024/01/12 02:43:52;;;;;;;0.00;0.00;;;4.10;87.30;;;;;;4949571;28;20081;-67
2024/01/12 02:46:18;;;;;;;0.00;0.00;;;4.10;87.30;;;;;;4950265;28;20058;-67
2024/01/12 02:48:43;;;;;;;0.03;0.03;;;4.10;87.30;;;;;;4949655;28;20058;-67
2024/01/12 02:51:09;;;;;;;0.00;0.00;;;4.10;87.30;;;;;;4949832;28;20051;-67
2024/01/12 02:53:35;;;;;;;0.00;0.00;;;4.10;87.40;;;;;;4949229;28;20126;-67
2024/01/12 02:56:00;;;;;;;0.00;0.00;;;4.10;87.40;;;;;;4964899;28;20134;-67
2024/01/12 02:58:26;;;;;;;0.08;0.08;;;4.10;87.40;;;;;;4951201;28;20141;-67
2024/01/12 03:00:52;;;;;;;0.10;0.10;;;4.10;87.50;;;;;;4952672;28;20062;-67
2024/01/12 03:03:18;;;;;;;0.00;0.00;;;4.10;87.40;;;;;;4948366;28;20055;-67
2024/01/12 03:05:44;;;;;;;0.10;0.10;;;4.10;87.50;;;;;;4949415;29;20097;-67
2024/01/12 03:08:10;;;;;;;0.00;0.00;;;4.10;87.50;;;;;;4957282;28;20091;-67
2024/01/12 03:10:37;;;;;;;0.10;0.10;;;4.20;87.40;;;;;;4948061;28;20051;-67
2024/01/12 03:13:03;;;;;;;0.10;0.10;;;4.20;87.40;;;;;;4955805;28;20067;-67
2024/01/12 03:15:28;;;;;;;0.00;0.00;;;4.20;87.50;;;;;;4968109;28;20043;-67
2024/01/12 03:17:56;;;;;;;0.00;0.00;;;4.20;87.60;;;;;;4961914;28;20039;-67
2024/01/12 03:20:22;;;;;;;0.00;0.00;;;4.20;87.70;;;;;;4949244;28;20047;-67
2024/01/12 03:22:47;;;;;;;0.00;0.00;;;4.20;87.60;;;;;;4958013;28;20051;-67
2024/01/12 03:25:13;;;;;;;0.10;0.10;;;4.30;87.70;;;;;;4968362;28;20046;-67
2024/01/12 03:27:39;;;;;;;0.00;0.00;;;4.20;87.70;;;;;;4968581;28;20108;-67
2024/01/12 03:30:05;;;;;;;0.00;0.00;;;4.20;87.70;;;;;;4957552;28;20062;-67
2024/01/12 03:32:33;;;;;;;0.10;0.10;;;4.20;87.70;;;;;;4948919;28;20055;-67
2024/01/12 03:34:59;;;;;;;0.00;0.00;;;4.20;87.60;;;;;;4955001;28;20066;-67
2024/01/12 03:37:24;;;;;;;0.00;0.00;;;4.20;87.70;;;;;;4967202;28;20081;-67
2024/01/12 03:39:50;;;;;;;0.00;0.00;;;4.20;87.70;;;;;;4951579;28;20035;-67
2024/01/12 03:42:16;;;;;;;0.10;0.10;;;4.20;87.80;;;;;;4949306;28;20098;-67
2024/01/12 03:44:41;;;;;;;0.10;0.10;;;4.20;87.70;;;;;;4954201;28;20134;-67
2024/01/12 03:47:07;;;;;;;0.00;0.00;;;4.10;87.60;;;;;;4967940;28;20038;-67
2024/01/12 03:49:33;;;;;;;0.10;0.10;;;4.10;87.80;;;;;;4958425;28;20689;-67
2024/01/12 03:51:59;;;;;;;0.00;0.00;;;4.00;87.80;;;;;;4947403;28;20051;-67
2024/01/12 03:54:24;;;;;;;0.10;0.10;;;4.10;87.90;;;;;;4955193;28;20053;-67
2024/01/12 03:56:50;;;;;;;0.00;0.00;;;4.00;87.80;;;;;;4949395;28;20047;-67
2024/01/12 03:59:16;;;;;;;0.00;0.00;;;4.00;87.60;;;;;;4949593;28;20134;-67
2024/01/12 04:01:46;;;;;;;0.10;0.10;;;3.90;87.80;;;;;;4949536;28;20146;-67
2024/01/12 04:04:12;;;;;;;0.05;0.05;;;3.90;87.70;;;;;;4950595;28;20094;-67
2024/01/12 04:06:39;;;;;;;0.10;0.10;;;3.90;87.80;;;;;;4960445;28;20058;-67
2024/01/12 04:09:04;;;;;;;0.00;0.00;;;3.90;87.80;;;;;;4949221;29;20043;-67
2024/01/12 04:11:30;;;;;;;0.00;0.00;;;3.90;87.80;;;;;;4949621;28;20751;-67
2024/01/12 04:13:56;;;;;;;0.00;0.00;;;3.90;87.80;;;;;;4949867;28;20035;-67
2024/01/12 04:16:21;;;;;;;0.00;0.00;;;3.90;87.80;;;;;;4948919;28;20051;-67
2024/01/12 04:18:47;;;;;;;0.00;0.00;;;3.90;87.80;;;;;;4948891;28;20054;-67
2024/01/12 04:21:13;;;;;;;0.00;0.00;;;3.90;87.90;;;;;;4948652;28;20046;-66
2024/01/12 04:23:39;;;;;;;0.10;0.10;;;3.90;87.90;;;;;;4948560;29;20051;-67
2024/01/12 04:26:08;;;;;;;0.00;0.00;;;3.90;87.80;;;;;;4948474;28;20058;-67
2024/01/12 04:28:33;;;;;;;0.00;0.00;;;3.90;88.00;;;;;;4949379;29;20127;-67
2024/01/12 04:31:03;;;;;;;0.00;0.00;;;3.90;87.90;;;;;;4956105;28;20146;-67
2024/01/12 04:33:30;;;;;;;0.00;0.00;;;3.80;88.00;;;;;;4949228;28;20055;-67
2024/01/12 04:35:56;;;;;;;0.00;0.00;;;3.80;88.10;;;;;;4949288;28;20106;-67
2024/01/12 04:38:22;;;;;;;0.40;0.40;;;3.80;88.10;;;;;;4948810;28;20051;-67
2024/01/12 04:40:48;;;;;;;0.00;0.00;;;3.70;88.10;;;;;;4949013;28;20082;-67
2024/01/12 04:43:14;;;;;;;0.00;0.00;;;3.70;88.20;;;;;;4949430;28;20429;-67
2024/01/12 04:45:39;;;;;;;0.08;0.08;;;3.70;88.20;;;;;;4958927;28;20456;-67
2024/01/12 04:48:05;;;;;;;0.20;0.20;;;3.70;88.20;;;;;;4955351;28;20493;-67
2024/01/12 04:50:31;;;;;;;0.10;0.10;;;3.60;88.30;;;;;;4949840;28;20055;-67
2024/01/12 04:52:57;;;;;;;0.38;0.38;;;3.60;88.50;;;;;;4949089;29;20048;-67
2024/01/12 04:55:40;;;;;;;0.03;0.03;;;3.60;88.60;;;;;;4948709;28;20102;-68
2024/01/12 04:58:12;;;;;;;0.10;0.10;;;3.60;88.60;;;;;;4949537;28;20046;-67
2024/01/12 05:00:38;;;;;;;0.05;0.05;;;3.50;88.70;;;;;;4948369;28;20050;-68
2024/01/12 05:03:04;;;;;;;0.00;0.00;;;3.60;88.80;;;;;;4947831;28;20039;-68
2024/01/12 05:05:42;;;;;;;0.00;0.00;;;3.60;88.90;;;;;;4956353;28;20121;-68
2024/01/12 05:08:10;;;;;;;0.10;0.10;;;3.60;88.90;;;;;;4956683;28;20134;-68
2024/01/12 05:10:36;;;;;;;0.10;0.10;;;3.60;88.90;;;;;;4958094;28;20074;-68
2024/01/12 05:13:02;;;;;;;0.13;0.13;;;3.50;89.10;;;;;;4959830;28;20453;-68
2024/01/12 05:15:40;;;;;;;0.00;0.00;;;3.50;89.30;;;;;;4971305;28;20054;-68
2024/01/12 05:18:14;;;;;;;0.00;0.00;;;3.50;89.30;;;;;;4952535;28;20043;-68
2024/01/12 05:20:39;;;;;;;0.00;0.00;;;3.50;89.30;;;;;;4980272;28;20563;-68
2024/01/12 05:23:05;;;;;;;0.00;0.00;;;3.50;89.30;;;;;;4954823;28;20130;-68
2024/01/12 05:25:31;;;;;;;0.00;0.00;;;3.40;89.40;;;;;;4960789;28;20416;-67
2024/01/12 05:27:56;;;;;;;0.10;0.10;;;3.40;89.50;;;;;;4970810;28;20046;-68
2024/01/12 05:30:22;;;;;;;0.00;0.00;;;3.50;89.50;;;;;;4970175;28;20050;-68
2024/01/12 05:32:48;;;;;;;0.10;0.10;;;3.50;89.50;;;;;;4959937;28;20078;-68
2024/01/12 05:35:21;;;;;;;0.00;0.00;;;3.50;89.50;;;;;;4950152;28;20083;-68
2024/01/12 05:37:48;;;;;;;0.00;0.00;;;3.60;89.50;;;;;;4951349;28;20389;-68
2024/01/12 05:40:13;;;;;;;0.00;0.00;;;3.60;89.50;;;;;;4950870;28;20051;-68
2024/01/12 05:42:39;;;;;;;0.10;0.10;;;3.50;89.70;;;;;;4948728;28;20046;-68
2024/01/12 05:45:06;;;;;;;0.00;0.00;;;3.50;89.60;;;;;;4955854;28;20064;-68
2024/01/12 05:47:31;;;;;;;0.00;0.00;;;3.50;89.60;;;;;;4955542;28;20512;-68
2024/01/12 05:49:57;;;;;;;0.00;0.00;;;3.60;89.70;;;;;;4956679;28;20061;-68
2024/01/12 05:52:23;;;;;;;0.10;0.10;;;3.50;89.70;;;;;;4957274;28;20049;-68
2024/01/12 05:54:51;;;;;;;0.00;0.00;;;3.50;89.60;;;;;;4950229;28;20669;-68
2024/01/12 05:57:18;;;;;;;0.00;0.00;;;3.60;89.60;;;;;;4954029;28;20047;-68
2024/01/12 05:59:48;;;;;;;0.10;0.10;;;3.50;89.60;;;;;;4951258;28;20770;-68
2024/01/12 06:02:18;;;;;;;0.10;0.10;;;3.50;89.60;;;;;;4964683;28;20416;-68
2024/01/12 06:04:44;;;;;;;0.00;0.00;;;3.50;89.70;;;;;;4947118;28;20059;-67
2024/01/12 06:07:22;;;;;;;0.03;0.03;;;3.50;89.70;;;;;;4953682;28;20055;-67
2024/01/12 06:09:53;;;;;;;4.00;2.13;;;3.50;89.70;;;;;;4948415;28;20086;-68
2024/01/12 06:16:02;;;;;;;0.00;0.00;;;3.60;89.70;;;;;;4952376;28;20050;-67
2024/01/12 06:18:28;;;;;;;0.08;0.08;;;3.60;89.70;;;;;;4954077;28;20047;-67
2024/01/12 06:20:54;;;;;;;0.10;0.10;;;3.60;89.60;;;;;;4949458;28;20531;-67
2024/01/12 06:23:20;;;;;;;0.10;0.10;;;3.60;89.50;;;;;;4957726;28;20058;-67
2024/01/12 06:25:47;;;;;;;0.00;0.00;;;3.70;89.50;;;;;;4956361;28;20039;-67
2024/01/12 06:28:13;;;;;;;0.03;0.03;;;3.70;89.40;;;;;;4949213;28;20101;-68
2024/01/12 06:30:39;;;;;;;0.10;0.10;;;3.70;89.20;;;;;;4950740;28;20047;-67
2024/01/12 06:33:05;;;;;;;0.00;0.00;;;3.70;89.10;;;;;;4958620;28;20043;-67
2024/01/12 06:35:30;;;;;;;0.10;0.10;;;3.70;88.70;;;;;;4950440;28;20050;-66
2024/01/12 06:37:57;;;;;;;0.10;0.10;;;3.80;88.80;;;;;;4949958;28;20039;-67
2024/01/12 06:40:23;;;;;;;0.10;0.10;;;3.90;88.70;;;;;;4948723;28;20130;-67
2024/01/12 06:42:48;;;;;;;0.30;0.30;;;3.90;88.60;;;;;;4948338;28;20221;-67
2024/01/12 06:45:14;;;;;;;0.10;0.10;;;3.80;88.40;;;;;;4967570;28;20085;-67
2024/01/12 06:47:40;;;;;;;0.40;0.40;;;3.90;88.30;;;;;;4951734;28;20083;-67
2024/01/12 06:50:06;;;;;;;0.00;0.00;;;3.90;88.30;;;;;;4947430;28;20106;-67
2024/01/12 06:52:32;;;;;;;0.00;0.00;;;4.00;88.20;;;;;;4949181;28;20047;-67
2024/01/12 06:54:57;;;;;;;0.00;0.00;;;3.90;87.90;;;;;;4948625;28;20075;-68
2024/01/12 06:57:23;;;;;;;0.00;0.00;;;3.90;87.90;;;;;;4948845;28;20047;-68
2024/01/12 06:59:49;;;;;;;0.20;0.20;;;3.90;87.80;;;;;;4949489;28;20075;-67
2024/01/12 07:02:15;;;;;;;0.10;0.10;;;4.00;87.80;;;;;;4948566;28;20496;-67
2024/01/12 07:04:41;;;;;;;0.00;0.00;;;4.10;87.70;;;;;;4957020;28;20057;-67
2024/01/12 07:07:09;;;;;;;0.00;0.00;;;4.10;87.60;;;;;;4950641;28;20059;-67
2024/01/12 07:09:35;;;;;;;0.22;0.22;;;4.10;87.50;;;;;;4964129;28;20493;-67
2024/01/12 07:12:01;;;;;;;0.10;0.10;;;4.10;87.30;;;;;;4938733;28;20057;-68
2024/01/12 07:14:26;;;;;;;0.28;0.28;;;4.10;87.30;;;;;;4945399;28;20544;-68
2024/01/12 07:16:52;;;;;;;0.10;0.10;;;4.10;87.30;;;;;;4947349;29;20035;-68
2024/01/12 07:19:18;;;;;;;0.00;0.00;;;4.10;87.30;;;;;;4947964;28;20038;-68
2024/01/12 07:21:43;;;;;;;0.00;0.00;;;4.20;87.30;;;;;;4950413;28;20047;-68
2024/01/12 07:27:00;;;;;;;0.00;0.00;;;4.20;87.10;;;;;;4942162;28;20047;-68
2024/01/12 07:29:25;;;;;;;0.00;0.00;;;5.10;87.60;;;;;;4940566;28;20054;-68
2024/01/12 07:31:51;;;;;;;0.90;0.90;;;5.10;85.40;;;;;;4928575;28;20877;-68
2024/01/12 07:34:17;;;;;;;0.00;0.00;;;5.10;86.20;;;;;;4939774;28;21362;-67
2024/01/12 07:36:43;;;;;;;0.10;0.10;;;5.00;86.30;;;;;;4945532;28;20059;-68
2024/01/12 07:39:10;;;;;;;0.00;0.00;;;5.00;86.20;;;;;;4937706;28;20547;-67
2024/01/12 07:41:36;;;;;;;0.00;0.00;;;4.90;86.20;;;;;;4923210;28;20067;-67
2024/01/12 07:44:01;;;;;;;0.00;0.00;;;4.90;85.90;;;;;;4913000;28;20187;-67
2024/01/12 07:46:28;;;;;;;1.65;1.55;;;4.80;85.80;;;;;;4947345;28;20059;-68
2024/01/12 07:48:55;;;;;;;0.10;0.10;;;4.70;85.70;;;;;;4945968;28;20051;-68
2024/01/12 07:51:21;;;;;;;0.00;0.00;;;4.70;85.40;;;;;;4943424;28;20106;-68
2024/01/12 07:53:46;;;;;;;0.03;0.03;;;4.60;85.50;;;;;;4944230;28;20043;-69
2024/01/12 07:56:12;;;;;;;0.00;0.00;;;4.60;85.60;;;;;;4945220;28;20656;-68
2024/01/12 07:58:38;;;;;;;0.10;0.10;;;4.60;85.60;;;;;;4943579;28;20517;-68
2024/01/12 08:01:07;;;;;;;0.00;0.00;;;4.60;85.70;;;;;;4946564;29;20058;-68
2024/01/12 08:03:33;;;;;;;0.00;0.00;;;4.60;85.60;;;;;;4943856;28;20062;-68
2024/01/12 08:06:02;;;;;;;0.00;0.00;;;4.50;85.60;;;;;;4962407;28;20981;-68
2024/01/12 08:08:28;;;;;;;0.00;0.00;;;4.50;85.80;;;;;;4961747;28;20830;-68
2024/01/12 08:10:54;;;;;;;0.20;0.20;;;4.50;85.80;;;;;;4945896;28;20047;-68
2024/01/12 08:13:19;;;;;;;0.00;0.00;;;4.50;85.80;;;;;;4951221;28;20054;-69
2024/01/12 08:15:45;;;;;;;0.10;0.10;;;4.50;85.90;;;;;;4949207;28;20052;-69
2024/01/12 08:18:11;;;;;;;0.00;0.00;;;4.50;85.60;;;;;;4945692;28;20791;-68
2024/01/12 08:20:37;;;;;;;0.10;0.10;;;4.40;85.80;;;;;;4944284;28;20044;-68
2024/01/12 08:23:03;;;;;;;0.17;0.17;;;4.50;85.70;;;;;;4948261;28;20118;-68
2024/01/12 08:25:29;;;;;;;0.10;0.10;;;4.40;85.80;;;;;;4947137;28;20194;-69
2024/01/12 08:27:55;;;;;;;0.00;0.00;;;4.50;85.90;;;;;;4957655;28;20054;-69
2024/01/12 08:30:20;;;;;;;0.10;0.10;;;4.40;85.80;;;;;;4945888;28;20102;-68
2024/01/12 08:32:46;;;;;;;0.00;0.00;;;4.40;85.90;;;;;;4948093;28;20036;-69
2024/01/12 08:35:11;;;;;;;0.00;0.00;;;4.40;85.80;;;;;;4947187;28;20126;-69
2024/01/12 08:37:37;;;;;;;0.00;0.00;;;4.40;85.90;;;;;;4948902;28;20093;-68
2024/01/12 08:40:03;;;;;;;0.10;0.10;;;4.40;86.00;;;;;;4950385;28;20472;-68
2024/01/12 08:42:29;;;;;;;0.00;0.00;;;4.40;86.00;;;;;;4950564;28;20050;-68
2024/01/12 08:44:54;;;;;;;0.00;0.00;;;4.40;86.00;;;;;;4949265;28;20074;-68
2024/01/12 08:47:20;;;;;;;0.05;0.05;;;4.40;86.10;;;;;;4954188;28;20126;-69
2024/01/12 08:49:45;;;;;;;0.35;0.35;;;4.40;86.10;;;;;;4950827;28;20047;-68
2024/01/12 08:52:11;;;;;;;0.00;0.00;;;4.40;86.20;;;;;;4951234;28;20318;-68
2024/01/12 08:54:37;;;;;;;0.10;0.10;;;4.50;86.20;;;;;;4965806;28;20055;-68
2024/01/12 08:57:02;;;;;;;0.00;0.00;;;4.50;86.20;;;;;;4949810;28;20051;-66
2024/01/12 08:59:28;;;;;;;0.00;0.00;;;4.60;86.30;;;;;;4948044;28;20039;-66
2024/01/12 09:01:55;;;;;;;0.00;0.00;;;5.20;90.60;;;;;;4947445;28;20046;-67
2024/01/12 09:04:22;;;;;;;0.03;0.03;;;5.60;87.50;;;;;;4944403;28;20046;-64
2024/01/12 09:06:49;;;;;;;0.10;0.10;;;5.50;86.20;;;;;;4948114;28;20078;-67
2024/01/12 09:09:14;;;;;;;0.00;0.00;;;5.40;85.30;;;;;;4949645;28;20101;-68
2024/01/12 09:11:40;;;;;;;0.20;0.20;;;5.30;85.40;;;;;;4949869;28;20039;-67
2024/01/12 09:14:05;;;;;;;0.10;0.10;;;5.20;85.20;;;;;;4949095;28;20049;-67
2024/01/12 09:16:31;;;;;;;0.00;0.00;;;5.10;85.50;;;;;;4953609;28;20038;-67
2024/01/12 09:18:57;;;;;;;0.10;0.10;;;5.10;85.60;;;;;;4953855;28;20074;-68
2024/01/12 09:21:24;;;;;;;0.10;0.10;;;5.10;85.70;;;;;;4952930;28;20043;-68
2024/01/12 09:23:49;;;;;;;0.08;0.08;;;5.00;85.60;;;;;;4950291;28;20042;-69
2024/01/12 09:26:15;;;;;;;0.00;0.00;;;4.90;85.80;;;;;;4952627;28;20043;-67
2024/01/12 09:28:41;;;;;;;0.00;0.00;;;4.90;85.90;;;;;;4952799;28;20047;-67
2024/01/12 09:31:08;;;;;;;0.20;0.20;;;4.80;86.00;;;;;;4948477;28;20047;-68
2024/01/12 09:33:34;;;;;;;0.00;0.00;;;4.80;86.00;;;;;;4947947;28;20455;-67
2024/01/12 09:35:59;;;;;;;0.00;0.00;;;4.80;86.10;;;;;;4956142;28;20770;-67
2024/01/12 09:38:25;;;;;;;0.00;0.00;;;4.80;86.10;;;;;;4956167;28;20114;-67
2024/01/12 09:40:51;;;;;;;0.00;0.00;;;4.80;86.30;;;;;;4948325;28;20051;-69
2024/01/12 09:43:21;;;;;;;0.00;0.00;;;4.80;86.40;;;;;;4949363;28;20054;-68
2024/01/12 09:45:50;;;;;;;0.10;0.10;;;4.80;86.50;;;;;;4955008;28;20050;-68
2024/01/12 09:48:16;;;;;;;0.15;0.15;;;4.80;86.50;;;;;;4945989;28;20039;-67
2024/01/12 09:50:43;;;;;;;0.00;0.00;;;4.90;86.70;;;;;;4948925;28;20055;-68
2024/01/12 09:53:09;;;;;;;0.00;0.00;;;5.00;86.70;;;;;;4958173;28;20110;-68
2024/01/12 09:55:35;;;;;;;0.00;0.00;;;5.00;86.80;;;;;;4958150;28;20051;-68
2024/01/12 09:58:02;;;;;;;0.00;0.00;;;4.90;86.80;;;;;;4956169;28;20050;-69
2024/01/12 10:00:31;;;;;;;0.00;0.00;;;4.90;86.80;;;;;;4958775;28;20055;-68
2024/01/12 10:02:58;;;;;;;0.00;0.00;;;4.80;86.90;;;;;;4957501;28;20050;-67
2024/01/12 10:05:25;;;;;;;0.00;0.00;;;4.80;87.20;;;;;;4957779;28;20541;-67
2024/01/12 10:07:50;;;;;;;0.00;0.00;;;4.90;87.20;;;;;;4953360;28;20047;-66
2024/01/12 10:10:16;;;;;;;0.00;0.00;;;4.90;87.40;;;;;;4957098;28;20074;-69
2024/01/12 10:12:42;;;;;;;0.10;0.10;;;4.90;87.50;;;;;;4958787;28;20512;-68
2024/01/12 10:15:09;;;;;;;0.00;0.00;;;4.90;87.50;;;;;;4972553;28;20924;-69
2024/01/12 10:17:35;;;;;;;0.10;0.10;;;4.90;87.60;;;;;;4956538;28;20050;-69
2024/01/12 10:20:01;;;;;;;0.00;0.00;;;4.90;87.80;;;;;;4957114;28;20512;-69
2024/01/12 10:22:27;;;;;;;0.00;0.00;;;4.90;87.90;;;;;;4956594;28;20449;-69
2024/01/12 10:25:03;;;;;;;0.00;0.00;;;4.90;88.40;;;;;;4957925;28;20047;-69
2024/01/12 10:27:32;;;;;;;0.10;0.10;;;4.80;88.70;;;;;;4957018;28;20039;-69
2024/01/12 10:29:58;;;;;;;0.10;0.10;;;4.90;88.90;;;;;;4957533;28;20047;-68
2024/01/12 10:32:24;;;;;;;0.75;0.73;;;4.80;88.90;;;;;;4957530;28;20058;-69
2024/01/12 10:34:52;;;;;;;0.10;0.10;;;4.70;89.00;;;;;;4966026;28;20054;-68
2024/01/12 10:37:19;;;;;;;0.10;0.10;;;4.80;89.20;;;;;;4969043;28;20130;-69
2024/01/12 10:39:46;;;;;;;0.10;0.10;;;4.70;89.10;;;;;;4969377;28;20039;-69
2024/01/12 10:42:13;;;;;;;0.30;0.30;;;4.70;89.20;;;;;;4952471;28;20123;-69
2024/01/12 10:44:40;;;;;;;0.10;0.10;;;4.70;89.20;;;;;;4949900;28;20051;-69
2024/01/12 10:47:10;;;;;;;0.10;0.10;;;4.70;89.30;;;;;;4949624;28;20416;-68
2024/01/12 10:50:06;;;;;;;0.10;0.10;;;4.70;89.30;;;;;;4949971;28;20083;-69
2024/01/12 10:52:51;;;;;;;0.00;0.00;;;4.70;89.10;;;;;;4948084;28;20090;-69
2024/01/12 10:55:20;;;;;;;0.00;0.00;;;4.80;89.20;;;;;;4949590;29;20062;-69
2024/01/12 10:57:46;;;;;;;0.00;0.00;;;4.70;89.20;;;;;;4949107;28;20054;-69
2024/01/12 11:00:14;;;;;;;0.00;0.00;;;4.80;89.10;;;;;;4946949;28;20171;-69
2024/01/12 11:02:40;;;;;;;0.00;0.00;;;4.90;89.00;;;;;;4948630;28;20081;-70
2024/01/12 11:05:10;;;;;;;0.38;0.38;;;4.90;88.90;;;;;;4949181;28;20512;-69
2024/01/12 11:07:38;;;;;;;0.00;0.00;;;4.90;88.90;;;;;;4949905;28;20134;-69
2024/01/12 11:10:06;;;;;;;0.00;0.00;;;5.00;88.70;;;;;;4949427;28;20043;-69
2024/01/12 11:12:35;;;;;;;0.10;0.10;;;5.00;88.60;;;;;;4949369;28;20664;-69
2024/01/12 11:15:02;;;;;;;0.00;0.00;;;5.00;88.50;;;;;;4948365;28;20460;-68
2024/01/12 11:17:29;;;;;;;0.10;0.10;;;5.10;88.60;;;;;;4949362;28;20051;-69
2024/01/12 11:20:12;;;;;;;0.10;0.10;;;5.00;88.50;;;;;;4949395;28;20117;-69
2024/01/12 11:22:38;;;;;;;0.00;0.00;;;5.10;88.60;;;;;;4947399;28;20571;-69
2024/01/12 11:25:06;;;;;;;0.00;0.00;;;5.00;88.60;;;;;;4928478;29;20253;-69
2024/01/12 11:27:37;;;;;;;0.25;0.25;;;5.10;88.60;;;;;;4947949;28;20051;-69
2024/01/12 11:30:05;;;;;;;0.10;0.10;;;5.00;88.70;;;;;;4949247;28;20079;-69
2024/01/12 11:32:32;;;;;;;0.45;0.45;;;5.10;88.80;;;;;;4963463;28;20051;-69
2024/01/12 11:35:16;;;;;;;9.70;5.15;;;5.10;88.80;;;;;;4963196;28;20765;-69
2024/01/12 11:38:01;;;;;;;0.00;0.00;;;5.10;89.00;;;;;;4949064;28;20062;-69
2024/01/12 11:40:27;;;;;;;0.10;0.10;;;5.10;88.90;;;;;;4948876;28;20429;-70
2024/01/12 11:42:53;;;;;;;0.38;0.38;;;5.10;88.90;;;;;;4947604;28;20051;-68
2024/01/12 11:45:19;;;;;;;0.10;0.10;;;5.10;89.00;;;;;;4947493;28;20090;-68
2024/01/12 11:47:45;;;;;;;0.10;0.10;;;5.10;89.10;;;;;;4950783;28;20159;-68
2024/01/12 11:50:14;;;;;;;0.00;0.00;;;5.10;89.00;;;;;;4948580;28;20090;-68
2024/01/12 11:52:40;;;;;;;0.15;0.15;;;5.10;89.20;;;;;;4963983;28;20125;-68
2024/01/12 11:55:07;;;;;;;0.80;0.80;;;5.10;89.20;;;;;;4951618;28;20050;-67
2024/01/12 11:57:42;;;;;;;1.33;1.23;;;5.10;89.60;;;;;;4947079;28;20849;-67
2024/01/12 12:00:09;;;;;;;1.58;1.48;;;5.10;89.70;;;;;;4947609;28;20051;-67
2024/01/12 12:02:35;;;;;;;0.10;0.10;;;5.00;89.90;;;;;;4948048;28;20409;-67
2024/01/12 12:05:17;;;;;;;0.00;0.00;;;5.00;90.20;;;;;;4947266;28;20066;-67
2024/01/12 12:07:43;;;;;;;0.00;0.00;;;5.00;90.60;;;;;;4946922;29;20075;-67
2024/01/12 12:10:10;;;;;;;0.00;0.00;;;5.00;90.70;;;;;;4947312;28;20043;-66
2024/01/12 12:12:36;;;;;;;0.00;0.00;;;5.00;90.80;;;;;;4948469;28;20489;-67
2024/01/12 12:15:12;;;;;;;0.10;0.10;;;5.00;90.90;;;;;;4952004;28;20141;-67
2024/01/12 12:17:41;;;;;;;0.00;0.00;;;5.00;91.00;;;;;;4950848;28;20055;-67
2024/01/12 12:20:11;;;;;;;0.00;0.00;;;5.00;91.10;;;;;;4950564;28;20548;-67
2024/01/12 12:22:40;;;;;;;0.00;0.00;;;5.00;91.10;;;;;;4950993;28;20580;-67
2024/01/12 12:25:10;;;;;;;0.00;0.00;;;5.00;91.40;;;;;;4950808;28;20560;-67
2024/01/12 12:27:40;;;;;;;0.03;0.03;;;5.00;91.50;;;;;;4949093;28;20059;-67
2024/01/12 12:30:10;;;;;;;0.00;0.00;;;5.10;91.50;;;;;;4953996;28;20090;-67
2024/01/12 12:32:44;;;;;;;0.45;0.45;;;5.10;91.40;;;;;;4951717;28;20043;-67
2024/01/12 12:35:19;;;;;;;0.55;0.55;;;5.10;91.40;;;;;;4967873;28;20042;-67
2024/01/12 12:37:52;;;;;;;0.10;0.10;;;5.10;91.40;;;;;;4971576;28;20078;-67
2024/01/12 12:40:19;;;;;;;0.00;0.00;;;5.10;91.30;;;;;;4961190;28;20071;-67
2024/01/12 12:42:47;;;;;;;0.00;0.00;;;5.10;91.40;;;;;;4951771;28;20044;-67
2024/01/12 12:45:15;;;;;;;0.70;0.70;;;5.10;91.40;;;;;;4950309;28;20087;-67
2024/01/12 12:47:40;;;;;;;0.10;0.10;;;5.20;91.40;;;;;;4949879;28;20152;-67
2024/01/12 12:50:11;;;;;;;0.00;0.00;;;5.10;91.20;;;;;;4951142;28;20093;-67
2024/01/12 12:52:38;;;;;;;0.00;0.00;;;5.10;91.40;;;;;;4950925;28;20122;-67
2024/01/12 12:55:05;;;;;;;0.10;0.10;;;5.10;91.40;;;;;;4951561;28;20051;-67
2024/01/12 12:57:31;;;;;;;2.75;1.65;;;5.10;91.50;;;;;;4950060;28;20069;-67
2024/01/12 12:59:57;;;;;;;0.00;0.00;;;5.20;91.50;;;;;;4964470;28;20517;-68
2024/01/12 13:02:24;;;;;;;0.00;0.00;;;5.20;91.40;;;;;;4964336;28;20067;-68